createdAt,value
2023-04-11T00:00:11.064Z,3.38
2023-04-11T00:02:41.341Z,3.10
2023-04-11T00:05:09.322Z,3.00
2023-04-11T00:07:36.688Z,3.20
2023-04-11T00:10:04.294Z,3.13
2023-04-11T00:12:31.429Z,3.63
2023-04-11T00:14:58.582Z,3.25
2023-04-11T00:17:28.740Z,2.95
2023-04-11T00:19:57.818Z,3.08
2023-04-11T00:22:25.052Z,3.20
2023-04-11T00:24:53.120Z,2.83
2023-04-11T00:27:21.894Z,2.92
2023-04-11T00:29:49.235Z,3.25
2023-04-11T00:32:16.369Z,3.05
2023-04-11T00:34:43.558Z,2.80
2023-04-11T00:37:12.748Z,2.95
2023-04-11T00:39:39.895Z,2.47
2023-04-11T00:42:07.829Z,2.85
2023-04-11T00:44:36.179Z,2.75
2023-04-11T00:47:04.218Z,2.67
2023-04-11T00:49:32.053Z,2.78
2023-04-11T00:52:00.434Z,2.33
2023-04-11T00:54:30.168Z,2.30
2023-04-11T00:56:59.178Z,2.15
2023-04-11T00:59:28.173Z,2.28
2023-04-11T01:01:55.773Z,2.17
2023-04-11T01:04:24.040Z,2.30
2023-04-11T01:06:54.359Z,2.22
2023-04-11T01:09:22.364Z,2.20
2023-04-11T01:11:50.133Z,2.35
2023-04-11T01:14:17.721Z,2.30
2023-04-11T01:16:47.307Z,2.30
2023-04-11T01:19:19.690Z,2.35
2023-04-11T01:21:48.415Z,2.38
2023-04-11T01:24:15.692Z,2.53
2023-04-11T01:26:43.026Z,2.47
2023-04-11T01:29:10.361Z,2.67
2023-04-11T01:31:37.582Z,2.30
2023-04-11T01:34:05.284Z,2.47
2023-04-11T01:36:32.733Z,2.60
2023-04-11T01:38:59.992Z,2.50
2023-04-11T01:41:27.570Z,2.50
2023-04-11T01:43:54.825Z,2.38
2023-04-11T01:46:22.487Z,2.28
2023-04-11T01:48:53.754Z,2.63
2023-04-11T01:51:21.290Z,2.30
2023-04-11T01:53:48.454Z,2.33
2023-04-11T01:56:15.961Z,2.33
2023-04-11T01:58:43.188Z,2.40
2023-04-11T02:01:11.898Z,2.30
2023-04-11T02:03:39.127Z,2.13
2023-04-11T02:06:06.509Z,2.10
2023-04-11T02:08:33.711Z,2.25
2023-04-11T02:11:00.877Z,1.80
2023-04-11T02:13:27.990Z,2.08
2023-04-11T02:15:55.345Z,1.95
2023-04-11T02:18:22.457Z,1.95
2023-04-11T02:20:50.342Z,1.70
2023-04-11T02:23:17.533Z,1.70
2023-04-11T02:25:44.703Z,1.95
2023-04-11T02:28:11.863Z,1.70
2023-04-11T02:30:39.138Z,2.15
2023-04-11T02:33:06.409Z,1.92
2023-04-11T02:35:33.652Z,1.60
2023-04-11T02:38:00.978Z,1.70
2023-04-11T02:40:28.177Z,1.70
2023-04-11T02:42:55.312Z,2.08
2023-04-11T02:45:22.499Z,1.50
2023-04-11T02:47:49.731Z,1.90
2023-04-11T02:50:16.996Z,1.80
2023-04-11T02:52:47.693Z,1.70
2023-04-11T02:55:15.038Z,1.58
2023-04-11T02:57:42.295Z,1.40
2023-04-11T03:00:09.729Z,1.67
2023-04-11T03:02:37.216Z,1.90
2023-04-11T03:05:04.650Z,1.65
2023-04-11T03:07:32.922Z,1.50
2023-04-11T03:10:03.174Z,1.70
2023-04-11T03:12:30.322Z,1.50
2023-04-11T03:14:57.452Z,1.73
2023-04-11T03:17:24.624Z,1.48
2023-04-11T03:19:51.748Z,1.60
2023-04-11T03:22:18.893Z,1.60
2023-04-11T03:24:46.034Z,1.38
2023-04-11T03:27:13.194Z,1.75
2023-04-11T03:29:40.676Z,1.25
2023-04-11T03:32:07.820Z,1.40
2023-04-11T03:34:34.959Z,1.40
2023-04-11T03:37:02.138Z,1.83
2023-04-11T03:39:29.275Z,1.23
2023-04-11T03:41:56.415Z,1.23
2023-04-11T03:44:23.533Z,1.38
2023-04-11T03:46:50.791Z,1.30
2023-04-11T03:49:17.958Z,2.55
2023-04-11T03:51:45.197Z,1.40
2023-04-11T03:54:12.337Z,1.20
2023-04-11T03:56:39.505Z,1.65
2023-04-11T03:59:06.707Z,1.40
2023-04-11T04:01:33.911Z,1.30
2023-04-11T04:04:02.011Z,1.20
2023-04-11T04:06:29.583Z,1.35
2023-04-11T04:08:56.717Z,1.20
2023-04-11T04:11:23.828Z,1.30
2023-04-11T04:13:50.970Z,1.10
2023-04-11T04:16:18.156Z,1.15
2023-04-11T04:18:45.459Z,1.52
2023-04-11T04:21:12.678Z,1.30
2023-04-11T04:23:47.557Z,1.00
2023-04-11T04:26:16.242Z,1.55
2023-04-11T04:28:47.368Z,1.42
2023-04-11T04:31:15.621Z,1.42
2023-04-11T04:33:43.880Z,1.00
2023-04-11T04:36:12.403Z,1.10
2023-04-11T04:38:42.190Z,1.23
2023-04-11T04:41:15.172Z,1.40
2023-04-11T04:43:42.654Z,1.40
2023-04-11T04:46:10.910Z,1.50
2023-04-11T04:48:38.121Z,1.27
2023-04-11T04:51:05.757Z,1.13
2023-04-11T04:53:34.832Z,1.70
2023-04-11T04:56:02.469Z,1.27
2023-04-11T04:58:29.647Z,1.30
2023-04-11T05:00:57.341Z,1.20
2023-04-11T05:03:24.628Z,1.52
2023-04-11T05:05:52.082Z,1.30
2023-04-11T05:08:20.972Z,1.20
2023-04-11T05:10:48.189Z,1.35
2023-04-11T05:13:15.371Z,1.65
2023-04-11T05:15:48.084Z,1.10
2023-04-11T05:18:15.580Z,1.42
2023-04-11T05:20:42.933Z,1.40
2023-04-11T05:23:10.069Z,1.65
2023-04-11T05:25:37.228Z,1.35
2023-04-11T05:28:04.365Z,1.77
2023-04-11T05:30:31.588Z,1.60
2023-04-11T05:32:58.771Z,1.60
2023-04-11T05:35:25.970Z,1.60
2023-04-11T05:37:53.192Z,1.67
2023-04-11T05:40:20.390Z,1.80
2023-04-11T05:42:47.557Z,1.60
2023-04-11T05:45:14.695Z,1.40
2023-04-11T05:47:41.885Z,1.80
2023-04-11T05:50:09.292Z,1.20
2023-04-11T05:52:36.579Z,1.23
2023-04-11T05:55:04.559Z,1.05
2023-04-11T05:57:31.701Z,1.00
2023-04-11T06:00:02.272Z,0.90
2023-04-11T06:02:29.637Z,1.15
2023-04-11T06:04:56.939Z,1.20
2023-04-11T06:07:24.089Z,1.27
2023-04-11T06:09:51.276Z,1.40
2023-04-11T06:12:18.750Z,1.20
2023-04-11T06:14:46.125Z,1.27
2023-04-11T06:17:13.270Z,1.20
2023-04-11T06:19:40.484Z,1.40
2023-04-11T06:22:07.675Z,1.40
2023-04-11T06:24:36.084Z,1.70
2023-04-11T06:27:03.724Z,1.40
2023-04-11T06:29:31.034Z,1.50
2023-04-11T06:31:58.574Z,1.25
2023-04-11T06:34:25.743Z,1.30
2023-04-11T06:36:52.859Z,1.35
2023-04-11T06:39:20.744Z,1.10
2023-04-11T06:41:48.326Z,1.33
2023-04-11T06:44:15.977Z,1.30
2023-04-11T06:46:43.279Z,1.42
2023-04-11T06:49:11.897Z,1.30
2023-04-11T06:51:39.098Z,1.60
2023-04-11T06:54:06.652Z,1.40
2023-04-11T06:56:33.818Z,1.50
2023-04-11T06:59:01.412Z,1.63
2023-04-11T07:01:35.434Z,1.50
2023-04-11T07:04:02.882Z,1.50
2023-04-11T07:06:31.535Z,1.50
2023-04-11T07:09:01.264Z,1.48
2023-04-11T07:11:28.722Z,1.35
2023-04-11T07:13:56.871Z,1.50
2023-04-11T07:16:24.307Z,1.77
2023-04-11T07:18:51.691Z,1.50
2023-04-11T07:21:18.837Z,1.75
2023-04-11T07:23:46.204Z,1.23
2023-04-11T07:26:14.458Z,1.50
2023-04-11T07:28:44.108Z,1.45
2023-04-11T07:31:12.198Z,1.30
2023-04-11T07:33:39.548Z,1.38
2023-04-11T07:36:07.217Z,1.25
2023-04-11T07:38:34.758Z,1.20
2023-04-11T07:41:02.379Z,0.98
2023-04-11T07:43:29.876Z,0.80
2023-04-11T07:45:57.587Z,0.80
2023-04-11T07:48:25.717Z,0.90
2023-04-11T07:50:53.086Z,0.93
2023-04-11T07:53:20.308Z,0.88
2023-04-11T07:55:47.428Z,1.00
2023-04-11T07:58:14.666Z,0.88
2023-04-11T08:00:41.957Z,0.77
2023-04-11T08:03:10.043Z,0.77
2023-04-11T08:05:37.804Z,1.20
2023-04-11T08:08:05.239Z,0.85
2023-04-11T08:10:32.520Z,0.90
2023-04-11T08:12:59.845Z,1.10
2023-04-11T08:15:27.091Z,1.30
2023-04-11T08:17:57.625Z,0.80
2023-04-11T08:20:25.280Z,0.90
2023-04-11T08:22:52.493Z,0.82
2023-04-11T08:25:20.024Z,0.52
2023-04-11T08:27:47.232Z,0.75
2023-04-11T08:30:14.750Z,0.60
2023-04-11T08:32:42.465Z,0.75
2023-04-11T08:35:10.247Z,0.40
2023-04-11T08:37:37.476Z,0.60
2023-04-11T08:40:08.605Z,0.82
2023-04-11T08:42:35.847Z,0.50
2023-04-11T08:45:04.635Z,0.60
2023-04-11T08:47:31.907Z,0.85
2023-04-11T08:49:59.251Z,0.50
2023-04-11T08:52:27.072Z,0.47
2023-04-11T08:54:55.239Z,0.60
2023-04-11T08:57:27.575Z,0.90
2023-04-11T09:00:14.057Z,0.80
2023-04-11T09:02:57.874Z,0.65
2023-04-11T09:05:29.567Z,0.65
2023-04-11T09:07:57.345Z,0.88
2023-04-11T09:10:24.930Z,0.50
2023-04-11T09:12:52.271Z,0.45
2023-04-11T09:15:22.097Z,0.68
2023-04-11T09:17:49.908Z,0.90
2023-04-11T09:20:21.467Z,0.70
2023-04-11T09:22:51.717Z,0.50
2023-04-11T09:25:20.095Z,0.70
2023-04-11T09:27:47.578Z,0.77
2023-04-11T09:30:22.636Z,0.63
2023-04-11T09:32:50.450Z,0.80
2023-04-11T09:35:22.816Z,0.73
2023-04-11T09:37:57.318Z,0.70
2023-04-11T09:40:28.389Z,0.75
2023-04-11T09:43:00.476Z,0.82
2023-04-11T09:45:28.672Z,0.68
2023-04-11T09:47:58.740Z,0.95
2023-04-11T09:50:26.963Z,0.80
2023-04-11T09:52:57.765Z,1.20
2023-04-11T09:55:26.445Z,0.60
2023-04-11T09:57:54.713Z,0.70
2023-04-11T10:00:23.228Z,0.70
2023-04-11T10:02:53.222Z,0.80
2023-04-11T10:05:22.104Z,0.82
2023-04-11T10:07:55.911Z,0.88
2023-04-11T10:10:24.019Z,0.98
2023-04-11T10:12:51.553Z,0.80
2023-04-11T10:15:19.317Z,0.90
2023-04-11T10:18:05.332Z,0.80
2023-04-11T10:20:32.558Z,1.20
2023-04-11T10:23:00.851Z,0.82
2023-04-11T10:25:28.853Z,1.20
2023-04-11T10:28:01.387Z,1.10
2023-04-11T10:30:40.956Z,0.60
2023-04-11T10:33:11.174Z,1.10
2023-04-11T10:36:02.249Z,1.08
2023-04-11T10:38:44.361Z,1.17
2023-04-11T10:41:25.286Z,0.70
2023-04-11T10:43:52.818Z,0.88
2023-04-11T10:46:24.074Z,1.10
2023-04-11T10:48:58.730Z,0.90
2023-04-11T10:51:26.819Z,0.90
2023-04-11T10:53:55.810Z,1.10
2023-04-11T10:56:41.296Z,0.90
2023-04-11T10:59:10.702Z,0.68
2023-04-11T11:04:10.098Z,0.80
2023-04-11T11:06:47.333Z,1.40
2023-04-11T11:09:28.327Z,0.90
2023-04-11T11:12:24.887Z,0.60
2023-04-11T11:14:52.005Z,1.05
2023-04-11T11:17:19.201Z,0.90
2023-04-11T11:19:47.087Z,0.80
2023-04-11T11:22:26.538Z,1.05
2023-04-11T11:24:53.867Z,0.63
2023-04-11T11:27:22.471Z,0.90
2023-04-11T11:29:49.733Z,1.10
2023-04-11T11:32:26.437Z,1.20
2023-04-11T11:34:53.916Z,0.80
2023-04-11T11:37:21.566Z,0.55
2023-04-11T11:39:49.163Z,1.58
2023-04-11T11:42:16.593Z,1.10
2023-04-11T11:44:43.775Z,0.90
2023-04-11T11:47:18.012Z,1.20
2023-04-11T11:49:49.283Z,1.10
2023-04-11T11:52:35.940Z,1.52
2023-04-11T11:55:11.391Z,0.80
2023-04-11T11:57:38.783Z,1.10
2023-04-11T12:00:06.308Z,1.77
2023-04-11T12:02:36.156Z,1.35
2023-04-11T12:05:05.474Z,1.23
2023-04-11T12:07:37.863Z,1.13
2023-04-11T12:10:11.607Z,1.00
2023-04-11T12:12:39.458Z,1.00
2023-04-11T12:15:16.699Z,1.30
2023-04-11T12:17:43.955Z,0.80
2023-04-11T12:20:11.310Z,1.40
2023-04-11T12:22:38.931Z,0.95
2023-04-11T12:25:13.300Z,1.17
2023-04-11T12:27:43.843Z,1.00
2023-04-11T12:30:11.605Z,1.00
2023-04-11T12:32:38.931Z,1.52
2023-04-11T12:35:06.607Z,1.27
2023-04-11T12:37:34.473Z,1.10
2023-04-11T12:40:01.901Z,0.93
2023-04-11T12:42:29.052Z,0.82
2023-04-11T12:44:56.244Z,1.52
2023-04-11T12:47:23.390Z,0.80
2023-04-11T12:49:50.550Z,1.35
2023-04-11T12:52:18.180Z,1.15
2023-04-11T12:54:45.364Z,1.50
2023-04-11T12:57:12.530Z,1.20
2023-04-11T12:59:39.682Z,1.40
2023-04-11T13:02:06.967Z,1.33
2023-04-11T13:04:34.280Z,1.20
2023-04-11T13:07:01.797Z,1.58
2023-04-11T13:09:32.355Z,1.30
2023-04-11T13:11:59.687Z,1.30
2023-04-11T13:14:26.867Z,1.17
2023-04-11T13:16:54.206Z,0.88
2023-04-11T13:19:21.792Z,1.50
2023-04-11T13:21:55.884Z,1.10
2023-04-11T13:24:23.046Z,1.13
2023-04-11T13:26:50.635Z,1.48
2023-04-11T13:29:17.874Z,1.20
2023-04-11T13:31:45.041Z,1.27
2023-04-11T13:34:12.358Z,1.25
2023-04-11T13:36:39.755Z,1.42
2023-04-11T13:39:07.476Z,1.30
2023-04-11T13:41:34.752Z,1.25
2023-04-11T13:44:01.886Z,1.50
2023-04-11T13:46:29.029Z,1.10
2023-04-11T13:48:56.507Z,1.13
2023-04-11T13:51:23.851Z,1.42
2023-04-11T13:53:51.058Z,1.20
2023-04-11T13:56:18.267Z,1.40
2023-04-11T13:58:45.448Z,1.48
2023-04-11T14:01:12.663Z,1.40
2023-04-11T14:03:42.764Z,1.20
2023-04-11T14:06:10.296Z,1.10
2023-04-11T14:08:37.456Z,1.02
2023-04-11T14:11:04.724Z,1.05
2023-04-11T14:13:31.901Z,0.93
2023-04-11T14:16:08.066Z,1.20
2023-04-11T14:18:36.933Z,1.20
2023-04-11T14:21:05.744Z,1.02
2023-04-11T14:23:32.930Z,1.08
2023-04-11T14:26:00.117Z,1.15
2023-04-11T14:28:27.243Z,1.15
2023-04-11T14:30:54.771Z,1.20
2023-04-11T14:33:22.017Z,0.90
2023-04-11T14:35:50.275Z,1.63
2023-04-11T14:38:17.538Z,0.90
2023-04-11T14:40:45.105Z,1.27
2023-04-11T14:43:12.306Z,1.30
2023-04-11T14:45:39.545Z,1.00
2023-04-11T14:48:06.824Z,1.40
2023-04-11T14:50:34.136Z,1.00
2023-04-11T14:53:01.310Z,1.13
2023-04-11T14:55:28.480Z,0.90
2023-04-11T14:57:56.525Z,0.82
2023-04-11T15:00:24.870Z,1.00
2023-04-11T15:02:56.250Z,1.17
2023-04-11T15:05:24.113Z,0.75
2023-04-11T15:07:52.272Z,0.98
2023-04-11T15:10:20.742Z,1.15
2023-04-11T15:12:48.145Z,0.80
2023-04-11T15:15:15.986Z,0.90
2023-04-11T15:17:44.259Z,0.95
2023-04-11T15:20:12.028Z,1.25
2023-04-11T15:22:43.162Z,0.90
2023-04-11T15:25:11.975Z,1.10
2023-04-11T15:27:39.475Z,1.02
2023-04-11T15:30:07.420Z,1.15
2023-04-11T15:32:35.326Z,1.30
2023-04-11T15:35:02.734Z,1.30
2023-04-11T15:37:29.962Z,1.25
2023-04-11T15:39:57.819Z,1.20
2023-04-11T15:42:24.986Z,1.40
2023-04-11T15:44:52.178Z,0.95
2023-04-11T15:47:19.412Z,0.93
2023-04-11T15:49:46.697Z,1.10
2023-04-11T15:52:15.264Z,1.00
2023-04-11T15:54:42.431Z,0.93
2023-04-11T15:57:09.559Z,0.90
2023-04-11T15:59:38.487Z,0.90
2023-04-11T16:02:05.761Z,1.15
2023-04-11T16:04:35.327Z,0.90
2023-04-11T16:07:02.794Z,1.25
2023-04-11T16:09:29.998Z,1.13
2023-04-11T16:11:57.527Z,1.00
2023-04-11T16:14:25.075Z,0.90
2023-04-11T16:16:53.005Z,0.85
2023-04-11T16:19:20.234Z,0.90
2023-04-11T16:21:47.506Z,1.33
2023-04-11T16:24:14.849Z,1.00
2023-04-11T16:26:42.047Z,1.38
2023-04-11T16:29:09.165Z,0.95
2023-04-11T16:31:36.731Z,1.10
2023-04-11T16:34:03.966Z,1.20
2023-04-11T16:36:31.184Z,0.85
2023-04-11T16:38:58.327Z,1.30
2023-04-11T16:41:25.510Z,1.30
2023-04-11T16:43:52.817Z,1.00
2023-04-11T16:46:19.996Z,1.00
2023-04-11T16:48:47.132Z,1.17
2023-04-11T16:51:14.380Z,1.45
2023-04-11T16:53:41.480Z,1.40
2023-04-11T16:56:08.911Z,1.17
2023-04-11T16:58:37.558Z,1.50
2023-04-11T17:01:05.664Z,1.00
2023-04-11T17:03:33.438Z,1.40
2023-04-11T17:06:00.867Z,1.15
2023-04-11T17:08:28.026Z,1.30
2023-04-11T17:11:04.203Z,1.40
2023-04-11T17:13:31.338Z,1.40
2023-04-11T17:15:58.487Z,0.95
2023-04-11T17:18:25.809Z,1.30
2023-04-11T17:20:52.984Z,1.23
2023-04-11T17:23:31.911Z,1.35
2023-04-11T17:26:06.492Z,1.10
2023-04-11T17:28:33.704Z,1.63
2023-04-11T17:31:01.092Z,1.30
2023-04-11T17:33:28.392Z,1.23
2023-04-11T17:35:55.574Z,1.00
2023-04-11T17:38:22.790Z,1.30
2023-04-11T17:40:50.465Z,1.42
2023-04-11T17:43:17.634Z,1.20
2023-04-11T17:45:44.882Z,1.10
2023-04-11T17:48:12.199Z,1.27
2023-04-11T17:50:39.599Z,1.45
2023-04-11T17:53:06.917Z,1.40
2023-04-11T17:55:34.110Z,1.00
2023-04-11T17:58:01.291Z,1.38
2023-04-11T18:00:30.261Z,1.73
2023-04-11T18:02:58.117Z,1.20
2023-04-11T18:05:26.762Z,1.45
2023-04-11T18:07:56.455Z,1.33
2023-04-11T18:10:24.237Z,1.63
2023-04-11T18:12:52.064Z,1.13
2023-04-11T18:15:19.595Z,1.70
2023-04-11T18:17:46.805Z,1.30
2023-04-11T18:20:14.539Z,1.52
2023-04-11T18:22:51.750Z,1.50
2023-04-11T18:25:18.943Z,1.42
2023-04-11T18:27:47.138Z,1.40
2023-04-11T18:30:15.564Z,1.45
2023-04-11T18:32:48.810Z,1.60
2023-04-11T18:35:17.514Z,1.70
2023-04-11T18:37:45.569Z,1.42
2023-04-11T18:40:13.904Z,1.50
2023-04-11T18:42:45.339Z,1.55
2023-04-11T18:45:13.735Z,1.80
2023-04-11T18:47:41.981Z,1.65
2023-04-11T18:50:09.391Z,1.90
2023-04-11T18:52:36.676Z,1.70
2023-04-11T18:55:03.835Z,1.95
2023-04-11T18:57:34.796Z,1.70
2023-04-11T19:00:17.581Z,1.58
2023-04-11T19:02:46.773Z,1.73
2023-04-11T19:05:14.776Z,1.30
2023-04-11T19:07:43.467Z,1.33
2023-04-11T19:10:11.611Z,1.30
2023-04-11T19:12:39.079Z,1.45
2023-04-11T19:15:07.866Z,1.55
2023-04-11T19:17:35.758Z,2.03
2023-04-11T19:20:07.004Z,1.35
2023-04-11T19:22:35.861Z,1.52
2023-04-11T19:25:03.318Z,1.80
2023-04-11T19:27:30.600Z,1.77
2023-04-11T19:29:57.748Z,1.52
2023-04-11T19:32:24.937Z,1.60
2023-04-11T19:34:52.145Z,1.70
2023-04-11T19:37:19.958Z,2.50
2023-04-11T19:39:47.628Z,1.80
2023-04-11T19:42:14.755Z,1.83
2023-04-11T19:44:41.931Z,1.90
2023-04-11T19:47:09.139Z,1.58
2023-04-11T19:49:36.573Z,1.58
2023-04-11T19:52:03.701Z,1.88
2023-04-11T19:54:32.982Z,1.88
2023-04-11T19:57:00.626Z,1.67
2023-04-11T19:59:27.807Z,1.55
2023-04-11T20:01:55.034Z,1.98
2023-04-11T20:04:22.472Z,1.33
2023-04-11T20:06:50.891Z,1.73
2023-04-11T20:09:18.144Z,1.83
2023-04-11T20:11:47.716Z,2.08
2023-04-11T20:14:14.934Z,1.77
2023-04-11T20:16:42.176Z,1.60
2023-04-11T20:19:09.412Z,1.83
2023-04-11T20:21:36.710Z,1.70
2023-04-11T20:24:03.912Z,1.38
2023-04-11T20:26:31.073Z,1.95
2023-04-11T20:28:58.503Z,2.20
2023-04-11T20:31:26.414Z,2.70
2023-04-11T20:33:53.798Z,1.98
2023-04-11T20:36:21.160Z,2.10
2023-04-11T20:38:48.429Z,1.92
2023-04-11T20:41:18.957Z,2.03
2023-04-11T20:43:46.149Z,2.20
2023-04-11T20:46:13.615Z,1.92
2023-04-11T20:48:41.911Z,1.90
2023-04-11T20:51:09.744Z,2.03
2023-04-11T20:53:36.973Z,2.60
2023-04-11T20:56:04.892Z,2.40
2023-04-11T20:58:32.131Z,1.92
2023-04-11T21:00:59.471Z,2.35
2023-04-11T21:03:32.664Z,2.33
2023-04-11T21:05:59.873Z,2.22
2023-04-11T21:08:27.148Z,2.17
2023-04-11T21:10:54.293Z,1.92
2023-04-11T21:13:21.467Z,1.90
2023-04-11T21:15:48.802Z,2.03
2023-04-11T21:18:16.025Z,2.33
2023-04-11T21:20:43.161Z,2.80
2023-04-11T21:23:10.381Z,3.30
2023-04-11T21:25:37.926Z,2.60
2023-04-11T21:28:05.115Z,2.30
2023-04-11T21:30:32.408Z,2.00
2023-04-11T21:32:59.882Z,2.28
2023-04-11T21:35:27.066Z,2.30
2023-04-11T21:37:54.250Z,2.00
2023-04-11T21:40:21.443Z,2.15
2023-04-11T21:42:48.581Z,2.30
2023-04-11T21:45:16.124Z,2.47
2023-04-11T21:47:43.399Z,2.22
2023-04-11T21:50:11.124Z,2.20
2023-04-11T21:52:38.312Z,2.40
2023-04-11T21:55:07.291Z,2.97
2023-04-11T21:57:36.269Z,2.80
2023-04-11T22:00:04.444Z,3.13
2023-04-11T22:02:31.963Z,2.67
2023-04-11T22:05:06.387Z,2.47
2023-04-11T22:07:38.269Z,3.05
2023-04-11T22:10:09.949Z,2.60
2023-04-11T22:12:37.400Z,2.65
2023-04-11T22:15:05.211Z,3.10
2023-04-11T22:17:32.827Z,2.95
2023-04-11T22:20:00.129Z,2.92
2023-04-11T22:22:30.434Z,2.97
2023-04-11T22:24:57.963Z,3.05
2023-04-11T22:27:29.460Z,2.70
2023-04-11T22:29:56.685Z,2.67
2023-04-11T22:32:24.270Z,2.47
2023-04-11T22:34:51.824Z,2.90
2023-04-11T22:37:19.132Z,2.70
2023-04-11T22:39:46.553Z,3.38
2023-04-11T22:42:13.697Z,3.20
2023-04-11T22:44:40.870Z,3.38
2023-04-11T22:47:11.103Z,2.92
2023-04-11T22:49:41.235Z,2.47
2023-04-11T22:52:08.752Z,2.80
2023-04-11T22:54:35.984Z,2.70
2023-04-11T22:57:03.137Z,2.47
2023-04-11T22:59:30.587Z,2.60
2023-04-11T23:01:57.853Z,3.05
2023-04-11T23:04:25.249Z,2.25
2023-04-11T23:06:53.657Z,2.40
2023-04-11T23:09:21.483Z,2.50
2023-04-11T23:11:48.940Z,2.50
2023-04-11T23:14:21.080Z,2.33
2023-04-11T23:16:48.499Z,1.98
2023-04-11T23:19:17.129Z,1.98
2023-04-11T23:21:44.984Z,1.92
2023-04-11T23:24:12.174Z,2.17
2023-04-11T23:26:39.364Z,2.10
2023-04-11T23:29:07.314Z,2.78
2023-04-11T23:31:34.561Z,1.80
2023-04-11T23:34:01.687Z,2.17
2023-04-11T23:36:29.140Z,2.05
2023-04-11T23:38:56.711Z,1.70
2023-04-11T23:41:24.009Z,1.67
2023-04-11T23:43:51.315Z,1.77
2023-04-11T23:46:18.526Z,2.00
2023-04-11T23:48:47.124Z,1.90
2023-04-11T23:51:14.442Z,1.52
2023-04-11T23:53:42.430Z,2.22
2023-04-11T23:56:09.953Z,1.30
2023-04-11T23:58:37.283Z,1.50
